createdAt,value
2017-11-10T00:00:00.968Z,0
2017-11-10T00:01:00.576Z,0
2017-11-10T00:02:01.239Z,0
2017-11-10T00:03:00.567Z,0
2017-11-10T00:04:00.554Z,0
2017-11-10T00:05:00.535Z,0
2017-11-10T00:06:01.207Z,0
2017-11-10T00:07:00.833Z,0
2017-11-10T00:08:01.158Z,0
2017-11-10T00:09:00.481Z,0
2017-11-10T00:10:01.129Z,0
2017-11-10T00:11:00.089Z,0
2017-11-10T00:12:01.114Z,0
2017-11-10T00:13:01.100Z,0
2017-11-10T00:14:00.733Z,0
2017-11-10T00:15:00.726Z,0
2017-11-10T00:16:01.055Z,0
2017-11-10T00:17:00.728Z,0
2017-11-10T00:18:00.351Z,0
2017-11-10T00:19:00.320Z,0
2017-11-10T00:19:59.972Z,0
2017-11-10T00:20:59.950Z,0
2017-11-10T00:22:00.961Z,0
2017-11-10T00:23:00.262Z,0
2017-11-10T00:24:00.590Z,0
2017-11-10T00:25:00.941Z,0
2017-11-10T00:26:00.604Z,0
2017-11-10T00:27:00.579Z,0
2017-11-10T00:28:00.559Z,0
2017-11-10T00:29:00.181Z,0
2017-11-10T00:30:00.166Z,0
2017-11-10T00:31:00.506Z,0
2017-11-10T00:32:00.843Z,0
2017-11-10T00:33:00.475Z,0
2017-11-10T00:34:00.475Z,0
2017-11-10T00:35:00.787Z,0
2017-11-10T00:36:00.081Z,0
2017-11-10T00:37:01.110Z,0
2017-11-10T00:38:00.401Z,0
2017-11-10T00:39:00.384Z,0
2017-11-10T00:40:00.720Z,0
2017-11-10T00:40:59.679Z,0
2017-11-10T00:42:00.706Z,0
2017-11-10T00:43:00.364Z,0
2017-11-10T00:44:00.331Z,0
2017-11-10T00:45:00.299Z,0
2017-11-10T00:46:00.651Z,0
2017-11-10T00:46:59.927Z,0
2017-11-10T00:48:00.606Z,0
2017-11-10T00:49:00.242Z,0
2017-11-10T00:50:00.238Z,0
2017-11-10T00:51:00.240Z,0
2017-11-10T00:52:00.544Z,0
2017-11-10T00:52:59.845Z,0
2017-11-10T00:54:00.534Z,0
2017-11-10T00:55:00.523Z,0
2017-11-10T00:56:00.489Z,0
2017-11-10T00:57:00.486Z,0
2017-11-10T00:57:59.835Z,0
2017-11-10T00:59:00.119Z,0
2017-11-10T01:00:00.100Z,0
2017-11-10T01:01:00.086Z,0
2017-11-10T01:02:00.068Z,0
2017-11-10T01:03:00.120Z,0
2017-11-10T01:04:00.372Z,0
2017-11-10T01:05:00.023Z,0
2017-11-10T01:05:59.662Z,0
2017-11-10T01:06:59.646Z,0
2017-11-10T01:07:59.657Z,0
2017-11-10T01:09:00.310Z,0
2017-11-10T01:09:59.614Z,0
2017-11-10T01:11:00.632Z,0
2017-11-10T01:11:59.580Z,0
2017-11-10T01:13:00.248Z,0
2017-11-10T01:13:59.564Z,0
2017-11-10T01:14:59.887Z,0
2017-11-10T01:15:59.871Z,0
2017-11-10T01:16:59.865Z,0
2017-11-10T01:17:59.847Z,0
2017-11-10T01:18:59.482Z,0
2017-11-10T01:19:59.474Z,0
2017-11-10T01:20:59.793Z,0
2017-11-10T01:21:59.440Z,0
2017-11-10T01:22:59.779Z,0
2017-11-10T01:23:59.775Z,0
2017-11-10T01:24:59.758Z,0
2017-11-10T01:25:59.388Z,0
2017-11-10T01:26:59.726Z,0
2017-11-10T01:28:00.049Z,0
2017-11-10T01:29:00.029Z,0
2017-11-10T01:29:59.348Z,0
2017-11-10T01:30:59.321Z,0
2017-11-10T01:31:59.661Z,0
2017-11-10T01:33:00.015Z,0
2017-11-10T01:33:59.989Z,0
2017-11-10T01:34:59.274Z,0
2017-11-10T01:36:00.280Z,0
2017-11-10T01:36:59.592Z,0
2017-11-10T01:37:59.555Z,0
2017-11-10T01:39:00.271Z,0
2017-11-10T01:39:59.599Z,0
2017-11-10T01:40:59.170Z,0
2017-11-10T01:41:59.859Z,0
2017-11-10T01:42:59.142Z,0
2017-11-10T01:43:59.471Z,0
2017-11-10T01:44:59.118Z,0
2017-11-10T01:45:59.463Z,0
2017-11-10T01:47:00.115Z,0
2017-11-10T01:47:58.727Z,0
2017-11-10T01:48:59.074Z,0
2017-11-10T01:49:59.384Z,0
2017-11-10T01:50:59.370Z,0
2017-11-10T01:51:59.359Z,0
2017-11-10T01:52:59.353Z,0
2017-11-10T01:53:59.685Z,0
2017-11-10T01:55:00.011Z,0
2017-11-10T01:55:58.980Z,0
2017-11-10T01:56:59.691Z,0
2017-11-10T01:57:59.277Z,0
2017-11-10T01:58:59.948Z,0
2017-11-10T01:59:59.275Z,0
2017-11-10T02:00:59.230Z,0
2017-11-10T02:01:58.534Z,0
2017-11-10T02:02:59.545Z,0
2017-11-10T02:03:59.187Z,0
2017-11-10T02:04:58.830Z,0
2017-11-10T02:05:59.193Z,0
2017-11-10T02:06:59.150Z,0
2017-11-10T02:07:58.792Z,0
2017-11-10T02:08:59.468Z,0
2017-11-10T02:09:58.760Z,0
2017-11-10T02:10:58.809Z,0
2017-11-10T02:11:59.422Z,0
2017-11-10T02:12:59.059Z,0
2017-11-10T02:13:59.062Z,0
2017-11-10T02:14:59.031Z,0
2017-11-10T02:15:59.049Z,0
2017-11-10T02:16:59.023Z,0
2017-11-10T02:17:58.646Z,0
2017-11-10T02:18:58.636Z,0
2017-11-10T02:19:58.967Z,0
2017-11-10T02:20:58.317Z,0
2017-11-10T02:21:58.591Z,0
2017-11-10T02:22:58.588Z,0
2017-11-10T02:23:58.566Z,0
2017-11-10T02:24:58.543Z,0
2017-11-10T02:25:58.893Z,0
2017-11-10T02:26:58.859Z,0
2017-11-10T02:27:59.189Z,0
2017-11-10T02:28:59.225Z,0
2017-11-10T02:29:58.507Z,0
2017-11-10T02:30:58.486Z,0
2017-11-10T02:31:58.822Z,0
2017-11-10T02:32:58.804Z,0
2017-11-10T02:33:58.432Z,0
2017-11-10T02:34:58.410Z,0
2017-11-10T02:35:58.762Z,0
2017-11-10T02:36:58.721Z,0
2017-11-10T02:37:58.741Z,0
2017-11-10T02:38:58.373Z,0
2017-11-10T02:39:58.700Z,0
2017-11-10T02:40:59.034Z,0
2017-11-10T02:41:58.651Z,0
2017-11-10T02:42:58.328Z,0
2017-11-10T02:43:58.976Z,0
2017-11-10T02:44:58.267Z,0
2017-11-10T02:45:58.608Z,0
2017-11-10T02:46:58.237Z,0
2017-11-10T02:47:58.225Z,0
2017-11-10T02:48:58.212Z,0
2017-11-10T02:49:58.209Z,0
2017-11-10T02:50:58.186Z,0
2017-11-10T02:51:58.188Z,0
2017-11-10T02:52:58.835Z,0
2017-11-10T02:53:58.880Z,0
2017-11-10T02:54:58.144Z,0
2017-11-10T02:55:58.823Z,0
2017-11-10T02:56:58.097Z,0
2017-11-10T02:57:58.428Z,0
2017-11-10T02:58:58.755Z,0
2017-11-10T02:59:58.413Z,0
2017-11-10T03:00:58.387Z,0
2017-11-10T03:01:58.387Z,0
2017-11-10T03:02:58.363Z,0
2017-11-10T03:03:58.343Z,0
2017-11-10T03:04:59.030Z,0
2017-11-10T03:05:57.978Z,0
2017-11-10T03:06:57.952Z,0
2017-11-10T03:07:58.297Z,0
2017-11-10T03:08:57.983Z,0
2017-11-10T03:09:58.269Z,0
2017-11-10T03:10:58.580Z,0
2017-11-10T03:11:58.219Z,0
2017-11-10T03:12:57.862Z,0
2017-11-10T03:13:57.505Z,0
2017-11-10T03:14:57.835Z,0
2017-11-10T03:15:57.827Z,0
2017-11-10T03:16:58.837Z,0
2017-11-10T03:17:58.477Z,0
2017-11-10T03:18:57.865Z,0
2017-11-10T03:19:57.760Z,0
2017-11-10T03:20:57.752Z,0
2017-11-10T03:21:58.470Z,0
2017-11-10T03:22:58.400Z,0
2017-11-10T03:23:58.420Z,0
2017-11-10T03:24:57.703Z,0
2017-11-10T03:25:57.692Z,0
2017-11-10T03:26:58.016Z,0
2017-11-10T03:27:57.986Z,0
2017-11-10T03:28:57.642Z,0
2017-11-10T03:29:57.622Z,0
2017-11-10T03:30:57.971Z,0
2017-11-10T03:31:57.952Z,0
2017-11-10T03:32:58.286Z,0
2017-11-10T03:33:57.553Z,0
2017-11-10T03:34:58.233Z,0
2017-11-10T03:35:57.521Z,0
2017-11-10T03:36:57.855Z,0
2017-11-10T03:37:57.834Z,0
2017-11-10T03:38:57.824Z,0
2017-11-10T03:39:58.151Z,0
2017-11-10T03:40:57.800Z,0
2017-11-10T03:41:57.092Z,0
2017-11-10T03:42:58.121Z,0
2017-11-10T03:43:57.777Z,0
2017-11-10T03:44:57.418Z,0
2017-11-10T03:45:57.748Z,0
2017-11-10T03:46:57.365Z,0
2017-11-10T03:47:57.735Z,0
2017-11-10T03:48:58.023Z,0
2017-11-10T03:49:58.023Z,0
2017-11-10T03:50:58.028Z,0
2017-11-10T03:51:57.978Z,0
2017-11-10T03:52:57.270Z,0
2017-11-10T03:53:57.959Z,0
2017-11-10T03:54:57.245Z,0
2017-11-10T03:55:57.228Z,0
2017-11-10T03:56:57.220Z,0
2017-11-10T03:57:57.200Z,0
2017-11-10T03:58:57.520Z,0
2017-11-10T03:59:57.181Z,0
2017-11-10T04:00:57.163Z,0
2017-11-10T04:01:57.491Z,0
2017-11-10T04:02:57.130Z,0
2017-11-10T04:03:57.120Z,0
2017-11-10T04:04:57.088Z,0
2017-11-10T04:05:57.426Z,0
2017-11-10T04:06:57.413Z,0
2017-11-10T04:07:57.066Z,0
2017-11-10T04:08:57.373Z,0
2017-11-10T04:09:57.385Z,0
2017-11-10T04:10:57.009Z,0
2017-11-10T04:11:57.335Z,0
2017-11-10T04:12:56.631Z,0
2017-11-10T04:13:57.652Z,0
2017-11-10T04:14:56.596Z,0
2017-11-10T04:15:57.268Z,0
2017-11-10T04:16:57.254Z,0
2017-11-10T04:17:56.555Z,0
2017-11-10T04:18:57.225Z,0
2017-11-10T04:19:56.866Z,0
2017-11-10T04:20:56.864Z,0
2017-11-10T04:21:57.178Z,0
2017-11-10T04:22:56.478Z,0
2017-11-10T04:23:57.168Z,0
2017-11-10T04:24:56.795Z,0
2017-11-10T04:25:57.813Z,0
2017-11-10T04:26:56.421Z,0
2017-11-10T04:27:56.410Z,0
2017-11-10T04:28:56.744Z,0
2017-11-10T04:29:56.733Z,0
2017-11-10T04:30:57.738Z,0
2017-11-10T04:31:56.385Z,0
2017-11-10T04:32:57.013Z,0
2017-11-10T04:33:57.372Z,0
2017-11-10T04:34:57.041Z,0
2017-11-10T04:35:56.650Z,0
2017-11-10T04:36:56.974Z,0
2017-11-10T04:37:56.623Z,0
2017-11-10T04:38:56.595Z,0
2017-11-10T04:39:56.912Z,0
2017-11-10T04:40:57.590Z,0
2017-11-10T04:41:56.885Z,0
2017-11-10T04:42:57.228Z,0
2017-11-10T04:43:56.858Z,0
2017-11-10T04:44:56.876Z,0
2017-11-10T04:45:57.191Z,0
2017-11-10T04:46:56.814Z,0
2017-11-10T04:47:56.462Z,0
2017-11-10T04:48:56.092Z,0
2017-11-10T04:49:56.087Z,0
2017-11-10T04:50:56.748Z,0
2017-11-10T04:51:56.391Z,0
2017-11-10T04:52:56.033Z,0
2017-11-10T04:53:57.405Z,0
2017-11-10T04:54:57.039Z,0
2017-11-10T04:55:55.990Z,0
2017-11-10T04:56:56.381Z,0
2017-11-10T04:57:56.650Z,0
2017-11-10T04:58:55.945Z,0
2017-11-10T04:59:56.300Z,0
2017-11-10T05:00:56.598Z,0
2017-11-10T05:01:56.262Z,0
2017-11-10T05:02:56.928Z,0
2017-11-10T05:03:56.578Z,0
2017-11-10T05:04:56.892Z,0
2017-11-10T05:05:56.216Z,0
2017-11-10T05:06:56.169Z,0
2017-11-10T05:07:56.838Z,0
2017-11-10T05:08:56.846Z,0
2017-11-10T05:09:55.798Z,0
2017-11-10T05:10:56.458Z,0
2017-11-10T05:11:56.782Z,0
2017-11-10T05:12:56.420Z,0
2017-11-10T05:13:56.419Z,0
2017-11-10T05:14:56.402Z,0
2017-11-10T05:15:56.379Z,0
2017-11-10T05:16:56.736Z,0
2017-11-10T05:17:56.389Z,0
2017-11-10T05:18:57.042Z,0
2017-11-10T05:19:55.638Z,0
2017-11-10T05:20:55.964Z,0
2017-11-10T05:21:56.998Z,0
2017-11-10T05:22:55.954Z,0
2017-11-10T05:23:56.300Z,0
2017-11-10T05:24:56.275Z,0
2017-11-10T05:25:55.912Z,0
2017-11-10T05:26:55.910Z,0
2017-11-10T05:27:56.203Z,0
2017-11-10T05:28:55.506Z,0
2017-11-10T05:29:56.516Z,0
2017-11-10T05:30:56.181Z,0
2017-11-10T05:31:56.863Z,0
2017-11-10T05:32:55.796Z,0
2017-11-10T05:33:55.456Z,0
2017-11-10T05:34:55.776Z,0
2017-11-10T05:35:55.407Z,0
2017-11-10T05:36:55.740Z,0
2017-11-10T05:37:56.090Z,0
2017-11-10T05:38:56.075Z,0
2017-11-10T05:39:55.684Z,0
2017-11-10T05:40:56.020Z,0
2017-11-10T05:41:55.314Z,0
2017-11-10T05:42:56.329Z,0
2017-11-10T05:43:55.628Z,0
2017-11-10T05:44:55.967Z,0
2017-11-10T05:45:56.296Z,0
2017-11-10T05:46:55.960Z,0
2017-11-10T05:47:55.590Z,0
2017-11-10T05:48:56.246Z,0
2017-11-10T05:49:55.890Z,0
2017-11-10T05:50:55.528Z,0
2017-11-10T05:51:55.888Z,0
2017-11-10T05:52:55.853Z,0
2017-11-10T05:53:55.834Z,0
2017-11-10T05:54:55.127Z,0
2017-11-10T05:55:55.473Z,0
2017-11-10T05:56:55.461Z,0
2017-11-10T05:57:56.140Z,0
2017-11-10T05:58:55.769Z,0
2017-11-10T05:59:55.755Z,0
2017-11-10T06:00:55.392Z,0
2017-11-10T06:01:55.712Z,0
2017-11-10T06:02:55.361Z,0
2017-11-10T06:03:55.693Z,0
2017-11-10T06:04:55.698Z,0
2017-11-10T06:05:55.309Z,0
2017-11-10T06:06:55.346Z,0
2017-11-10T06:07:55.633Z,0
2017-11-10T06:08:54.932Z,0
2017-11-10T06:09:56.001Z,0
2017-11-10T06:10:55.586Z,0
2017-11-10T06:11:55.223Z,0
2017-11-10T06:12:54.863Z,0
2017-11-10T06:13:55.192Z,0
2017-11-10T06:14:55.540Z,0
2017-11-10T06:15:55.164Z,0
2017-11-10T06:16:55.518Z,0
2017-11-10T06:17:55.485Z,0
2017-11-10T06:18:55.479Z,0
2017-11-10T06:19:55.141Z,0
2017-11-10T06:20:55.450Z,0
2017-11-10T06:21:54.749Z,0
2017-11-10T06:22:55.414Z,0
2017-11-10T06:23:55.057Z,0
2017-11-10T06:24:55.033Z,5
2017-11-10T06:25:55.381Z,5
2017-11-10T06:26:55.346Z,5
2017-11-10T06:27:55.341Z,5
2017-11-10T06:28:54.975Z,5
2017-11-10T06:29:54.959Z,5
2017-11-10T06:30:54.613Z,5
2017-11-10T06:31:54.931Z,5
2017-11-10T06:32:55.608Z,5
2017-11-10T06:33:54.903Z,10
2017-11-10T06:34:55.245Z,10
2017-11-10T06:35:54.882Z,10
2017-11-10T06:36:55.197Z,10
2017-11-10T06:37:55.183Z,10
2017-11-10T06:38:54.841Z,10
2017-11-10T06:39:55.200Z,5
2017-11-10T06:40:55.151Z,10
2017-11-10T06:41:55.498Z,10
2017-11-10T06:42:55.130Z,10
2017-11-10T06:43:54.769Z,10
2017-11-10T06:44:55.172Z,15
2017-11-10T06:45:54.723Z,15
2017-11-10T06:46:54.728Z,15
2017-11-10T06:47:55.054Z,15
2017-11-10T06:48:54.690Z,15
2017-11-10T06:49:54.663Z,15
2017-11-10T06:50:55.033Z,15
2017-11-10T06:51:54.635Z,15
2017-11-10T06:52:55.306Z,15
2017-11-10T06:53:54.965Z,15
2017-11-10T06:54:54.935Z,15
2017-11-10T06:55:54.919Z,15
2017-11-10T06:56:54.560Z,15
2017-11-10T06:57:54.229Z,15
2017-11-10T06:58:54.534Z,15
2017-11-10T06:59:54.872Z,15
2017-11-10T07:00:55.207Z,15
2017-11-10T07:01:55.233Z,15
2017-11-10T07:02:54.832Z,15
2017-11-10T07:03:54.492Z,15
2017-11-10T07:04:54.785Z,15
2017-11-10T07:05:54.427Z,15
2017-11-10T07:06:54.759Z,20
2017-11-10T07:07:54.775Z,20
2017-11-10T07:08:54.057Z,20
2017-11-10T07:09:54.379Z,15
2017-11-10T07:10:54.017Z,15
2017-11-10T07:11:54.357Z,15
2017-11-10T07:12:53.987Z,15
2017-11-10T07:13:54.655Z,15
2017-11-10T07:14:54.294Z,15
2017-11-10T07:15:54.673Z,20
2017-11-10T07:16:55.011Z,20
2017-11-10T07:17:54.937Z,15
2017-11-10T07:18:54.237Z,20
2017-11-10T07:19:54.591Z,20
2017-11-10T07:20:53.877Z,20
2017-11-10T07:21:54.226Z,20
2017-11-10T07:22:54.181Z,15
2017-11-10T07:23:53.836Z,20
2017-11-10T07:24:54.874Z,15
2017-11-10T07:25:53.795Z,20
2017-11-10T07:26:54.806Z,20
2017-11-10T07:27:54.448Z,20
2017-11-10T07:28:54.101Z,15
2017-11-10T07:29:54.419Z,15
2017-11-10T07:30:54.790Z,15
2017-11-10T07:31:54.047Z,15
2017-11-10T07:32:54.378Z,15
2017-11-10T07:33:54.365Z,15
2017-11-10T07:34:54.356Z,15
2017-11-10T07:35:54.359Z,20
2017-11-10T07:36:53.982Z,20
2017-11-10T07:37:54.650Z,20
2017-11-10T07:38:54.293Z,20
2017-11-10T07:39:54.296Z,25
2017-11-10T07:40:54.296Z,20
2017-11-10T07:41:54.274Z,20
2017-11-10T07:42:53.897Z,25
2017-11-10T07:43:54.573Z,20
2017-11-10T07:44:53.873Z,25
2017-11-10T07:45:53.497Z,30
2017-11-10T07:46:54.510Z,30
2017-11-10T07:47:53.843Z,25
2017-11-10T07:48:53.832Z,20
2017-11-10T07:49:53.788Z,25
2017-11-10T07:50:54.472Z,25
2017-11-10T07:51:54.109Z,25
2017-11-10T07:52:54.114Z,25
2017-11-10T07:53:53.721Z,25
2017-11-10T07:54:53.367Z,20
2017-11-10T07:55:54.047Z,20
2017-11-10T07:56:53.349Z,20
2017-11-10T07:57:53.662Z,20
2017-11-10T07:58:54.356Z,20
2017-11-10T07:59:53.994Z,20
2017-11-10T08:00:55.252Z,20
2017-11-10T08:01:53.686Z,25
2017-11-10T08:02:53.961Z,25
2017-11-10T08:03:54.283Z,30
2017-11-10T08:04:53.565Z,30
2017-11-10T08:05:53.563Z,40
2017-11-10T08:06:53.913Z,35
2017-11-10T08:07:53.181Z,30
2017-11-10T08:08:53.606Z,35
2017-11-10T08:09:53.871Z,40
2017-11-10T08:10:53.813Z,35
2017-11-10T08:11:53.820Z,35
2017-11-10T08:12:53.440Z,35
2017-11-10T08:13:53.793Z,40
2017-11-10T08:14:53.427Z,35
2017-11-10T08:15:53.745Z,40
2017-11-10T08:16:53.727Z,35
2017-11-10T08:17:53.403Z,35
2017-11-10T08:18:53.350Z,35
2017-11-10T08:19:53.005Z,30
2017-11-10T08:20:54.030Z,50
2017-11-10T08:21:53.650Z,40
2017-11-10T08:22:53.640Z,40
2017-11-10T08:23:53.288Z,60
2017-11-10T08:24:53.274Z,60
2017-11-10T08:25:53.258Z,45
2017-11-10T08:26:53.230Z,50
2017-11-10T08:27:54.251Z,65
2017-11-10T08:28:52.862Z,70
2017-11-10T08:29:53.189Z,65
2017-11-10T08:30:53.517Z,55
2017-11-10T08:31:53.517Z,60
2017-11-10T08:32:53.499Z,65
2017-11-10T08:33:53.499Z,65
2017-11-10T08:34:53.128Z,65
2017-11-10T08:35:53.800Z,60
2017-11-10T08:36:53.095Z,70
2017-11-10T08:37:52.757Z,65
2017-11-10T08:38:53.393Z,60
2017-11-10T08:39:53.077Z,55
2017-11-10T08:40:53.701Z,55
2017-11-10T08:41:53.017Z,55
2017-11-10T08:42:52.994Z,65
2017-11-10T08:43:53.682Z,75
2017-11-10T08:44:53.656Z,75
2017-11-10T08:45:52.609Z,75
2017-11-10T08:46:52.592Z,75
2017-11-10T08:47:53.265Z,80
2017-11-10T08:48:53.248Z,75
2017-11-10T08:49:52.897Z,85
2017-11-10T08:50:53.223Z,75
2017-11-10T08:51:52.532Z,85
2017-11-10T08:52:52.851Z,95
2017-11-10T08:53:53.191Z,85
2017-11-10T08:54:53.189Z,85
2017-11-10T08:55:53.173Z,115
2017-11-10T08:56:53.148Z,100
2017-11-10T08:57:52.428Z,110
2017-11-10T08:58:52.782Z,105
2017-11-10T08:59:52.741Z,110
2017-11-10T09:00:52.747Z,110
2017-11-10T09:01:52.734Z,105
2017-11-10T09:02:53.431Z,95
2017-11-10T09:03:52.685Z,80
2017-11-10T09:04:52.340Z,70
2017-11-10T09:05:53.022Z,80
2017-11-10T09:06:52.664Z,90
2017-11-10T09:07:53.323Z,80
2017-11-10T09:08:52.628Z,70
2017-11-10T09:09:52.272Z,80
2017-11-10T09:10:53.414Z,60
2017-11-10T09:11:52.586Z,75
2017-11-10T09:12:52.894Z,80
2017-11-10T09:13:53.224Z,75
2017-11-10T09:14:52.218Z,95
2017-11-10T09:15:53.191Z,100
2017-11-10T09:16:53.199Z,95
2017-11-10T09:17:52.843Z,75
2017-11-10T09:18:52.474Z,75
2017-11-10T09:19:53.195Z,90
2017-11-10T09:20:52.776Z,90
2017-11-10T09:21:53.472Z,90
2017-11-10T09:22:52.753Z,95
2017-11-10T09:23:53.444Z,100
2017-11-10T09:24:52.033Z,110
2017-11-10T09:25:52.703Z,100
2017-11-10T09:26:52.717Z,85
2017-11-10T09:27:52.330Z,80
2017-11-10T09:28:52.318Z,85
2017-11-10T09:29:52.664Z,90
2017-11-10T09:30:52.650Z,115
2017-11-10T09:31:52.291Z,110
2017-11-10T09:32:51.913Z,130
2017-11-10T09:33:52.253Z,120
2017-11-10T09:34:52.580Z,125
2017-11-10T09:35:52.570Z,115
2017-11-10T09:36:52.924Z,105
2017-11-10T09:37:52.185Z,105
2017-11-10T09:38:52.900Z,95
2017-11-10T09:39:52.507Z,100
2017-11-10T09:40:52.161Z,80
2017-11-10T09:41:52.510Z,80
2017-11-10T09:42:51.765Z,95
2017-11-10T09:43:52.831Z,100
2017-11-10T09:44:51.754Z,125
2017-11-10T09:45:52.065Z,100
2017-11-10T09:46:52.395Z,85
2017-11-10T09:47:52.722Z,110
2017-11-10T09:48:52.374Z,100
2017-11-10T09:49:52.015Z,85
2017-11-10T09:50:52.353Z,85
2017-11-10T09:51:51.638Z,85
2017-11-10T09:52:52.341Z,95
2017-11-10T09:53:51.954Z,120
2017-11-10T09:54:52.653Z,130
2017-11-10T09:55:51.578Z,125
2017-11-10T09:56:52.268Z,125
2017-11-10T09:57:51.917Z,125
2017-11-10T09:58:52.225Z,125
2017-11-10T09:59:52.568Z,110
2017-11-10T10:00:52.538Z,125
2017-11-10T10:01:52.179Z,130
2017-11-10T10:02:52.184Z,135
2017-11-10T10:03:52.157Z,175
2017-11-10T10:04:52.824Z,140
2017-11-10T10:05:52.148Z,135
2017-11-10T10:06:51.759Z,135
2017-11-10T10:07:52.434Z,120
2017-11-10T10:08:52.426Z,110
2017-11-10T10:09:52.072Z,115
2017-11-10T10:10:52.077Z,110
2017-11-10T10:11:52.770Z,95
2017-11-10T10:12:52.366Z,110
2017-11-10T10:13:52.378Z,90
2017-11-10T10:14:51.988Z,105
2017-11-10T10:15:51.630Z,115
2017-11-10T10:16:51.290Z,100
2017-11-10T10:17:51.600Z,110
2017-11-10T10:18:51.583Z,100
2017-11-10T10:19:51.921Z,110
2017-11-10T10:20:51.214Z,100
2017-11-10T10:21:51.901Z,100
2017-11-10T10:22:51.870Z,80
2017-11-10T10:23:51.512Z,80
2017-11-10T10:24:51.515Z,90
2017-11-10T10:25:51.832Z,80
2017-11-10T10:26:51.811Z,85
2017-11-10T10:27:51.453Z,80
2017-11-10T10:28:52.119Z,70
2017-11-10T10:29:51.428Z,75
2017-11-10T10:30:51.413Z,75
2017-11-10T10:31:51.051Z,75
2017-11-10T10:32:51.722Z,75
2017-11-10T10:33:51.708Z,75
2017-11-10T10:34:51.355Z,75
2017-11-10T10:35:52.046Z,80
2017-11-10T10:36:51.355Z,80
2017-11-10T10:37:51.338Z,75
2017-11-10T10:38:50.973Z,90
2017-11-10T10:39:51.979Z,95
2017-11-10T10:40:51.634Z,100
2017-11-10T10:41:51.606Z,105
2017-11-10T10:42:51.578Z,120
2017-11-10T10:43:51.573Z,115
2017-11-10T10:44:51.212Z,115
2017-11-10T10:45:51.881Z,120
2017-11-10T10:46:51.537Z,125
2017-11-10T10:47:51.502Z,120
2017-11-10T10:48:51.528Z,125
2017-11-10T10:49:51.813Z,105
2017-11-10T10:50:51.479Z,130
2017-11-10T10:51:51.139Z,95
2017-11-10T10:52:51.092Z,85
2017-11-10T10:53:51.083Z,120
2017-11-10T10:54:51.401Z,120
2017-11-10T10:55:51.073Z,105
2017-11-10T10:56:52.055Z,140
2017-11-10T10:57:52.102Z,145
2017-11-10T10:58:51.362Z,120
2017-11-10T10:59:51.014Z,130
2017-11-10T11:00:51.311Z,125
2017-11-10T11:01:50.609Z,135
2017-11-10T11:02:50.608Z,120
2017-11-10T11:03:51.299Z,105
2017-11-10T11:04:51.613Z,110
2017-11-10T11:05:51.620Z,115
2017-11-10T11:06:50.552Z,125
2017-11-10T11:07:51.572Z,130
2017-11-10T11:08:51.235Z,140
2017-11-10T11:09:50.855Z,195
2017-11-10T11:10:51.199Z,190
2017-11-10T11:11:50.808Z,170
2017-11-10T11:12:50.793Z,170
2017-11-10T11:13:51.170Z,145
2017-11-10T11:14:50.769Z,140
2017-11-10T11:15:51.463Z,135
2017-11-10T11:16:50.737Z,120
2017-11-10T11:17:51.420Z,125
2017-11-10T11:18:50.703Z,110
2017-11-10T11:19:51.374Z,105
2017-11-10T11:20:51.705Z,110
2017-11-10T11:21:50.327Z,100
2017-11-10T11:22:51.341Z,95
2017-11-10T11:23:51.336Z,115
2017-11-10T11:24:50.619Z,125
2017-11-10T11:25:51.315Z,115
2017-11-10T11:26:50.593Z,115
2017-11-10T11:27:50.920Z,120
2017-11-10T11:28:50.898Z,115
2017-11-10T11:29:50.894Z,120
2017-11-10T11:30:50.891Z,105
2017-11-10T11:31:50.896Z,100
2017-11-10T11:32:50.507Z,100
2017-11-10T11:33:50.862Z,95
2017-11-10T11:34:50.479Z,95
2017-11-10T11:35:50.463Z,100
2017-11-10T11:36:50.464Z,90
2017-11-10T11:37:50.092Z,90
2017-11-10T11:38:50.451Z,100
2017-11-10T11:39:51.088Z,95
2017-11-10T11:40:50.729Z,100
2017-11-10T11:41:51.078Z,90
2017-11-10T11:42:50.367Z,95
2017-11-10T11:43:50.684Z,105
2017-11-10T11:44:50.683Z,110
2017-11-10T11:45:51.000Z,110
2017-11-10T11:46:50.656Z,130
2017-11-10T11:47:50.283Z,140
2017-11-10T11:48:49.924Z,120
2017-11-10T11:49:50.274Z,115
2017-11-10T11:50:50.241Z,125
2017-11-10T11:51:50.228Z,120
2017-11-10T11:52:49.895Z,105
2017-11-10T11:53:50.885Z,90
2017-11-10T11:54:50.871Z,85
2017-11-10T11:55:50.180Z,75
2017-11-10T11:56:50.858Z,80
2017-11-10T11:57:50.512Z,80
2017-11-10T11:58:50.119Z,90
2017-11-10T11:59:50.108Z,90
2017-11-10T12:00:50.440Z,85
2017-11-10T12:01:50.076Z,70
2017-11-10T12:02:49.721Z,75
2017-11-10T12:03:50.055Z,80
2017-11-10T12:04:50.030Z,85
2017-11-10T12:05:50.372Z,85
2017-11-10T12:06:50.366Z,95
2017-11-10T12:07:49.990Z,95
2017-11-10T12:08:50.696Z,105
2017-11-10T12:09:50.301Z,90
2017-11-10T12:10:49.963Z,115
2017-11-10T12:11:50.304Z,115
2017-11-10T12:12:49.597Z,115
2017-11-10T12:13:50.601Z,115
2017-11-10T12:14:49.887Z,115
2017-11-10T12:15:50.243Z,115
2017-11-10T12:16:50.909Z,105
2017-11-10T12:17:50.185Z,120
2017-11-10T12:18:50.173Z,105
2017-11-10T12:19:50.164Z,110
2017-11-10T12:20:50.164Z,95
2017-11-10T12:21:49.816Z,105
2017-11-10T12:22:49.791Z,90
2017-11-10T12:23:50.097Z,90
2017-11-10T12:24:50.455Z,85
2017-11-10T12:25:49.724Z,85
2017-11-10T12:26:49.726Z,85
2017-11-10T12:27:49.724Z,80
2017-11-10T12:28:50.421Z,105
2017-11-10T12:29:49.681Z,100
2017-11-10T12:30:49.351Z,95
2017-11-10T12:31:49.985Z,95
2017-11-10T12:32:50.029Z,90
2017-11-10T12:33:50.298Z,85
2017-11-10T12:34:49.618Z,80
2017-11-10T12:35:49.924Z,75
2017-11-10T12:36:49.927Z,75
2017-11-10T12:37:49.209Z,70
2017-11-10T12:38:49.553Z,65
2017-11-10T12:39:49.890Z,60
2017-11-10T12:40:49.519Z,60
2017-11-10T12:41:49.548Z,60
2017-11-10T12:42:49.820Z,60
2017-11-10T12:43:49.822Z,60
2017-11-10T12:44:49.805Z,60
2017-11-10T12:45:49.089Z,60
2017-11-10T12:46:50.131Z,60
2017-11-10T12:47:50.108Z,50
2017-11-10T12:48:49.744Z,65
2017-11-10T12:49:49.736Z,65
2017-11-10T12:51:04.186Z,70
2017-11-10T12:51:49.168Z,75
2017-11-10T12:52:50.034Z,90
2017-11-10T12:53:49.892Z,70
2017-11-10T12:54:49.898Z,65
2017-11-10T12:55:50.650Z,70
2017-11-10T12:56:50.151Z,70
2017-11-10T12:57:49.779Z,70
2017-11-10T12:58:50.133Z,75
2017-11-10T12:59:49.513Z,70
2017-11-10T13:00:50.438Z,75
2017-11-10T13:01:50.831Z,75
2017-11-10T13:02:49.940Z,85
2017-11-10T13:03:50.339Z,75
2017-11-10T13:04:50.018Z,85
2017-11-10T13:05:49.934Z,100
2017-11-10T13:06:48.805Z,95
2017-11-10T13:07:49.836Z,80
2017-11-10T13:08:49.781Z,110
2017-11-10T13:09:49.443Z,100
2017-11-10T13:10:49.087Z,80
2017-11-10T13:11:49.416Z,100
2017-11-10T13:12:49.754Z,90
2017-11-10T13:13:49.368Z,85
2017-11-10T13:14:49.053Z,90
2017-11-10T13:15:48.999Z,115
2017-11-10T13:16:48.980Z,80
2017-11-10T13:17:49.359Z,80
2017-11-10T13:18:49.293Z,80
2017-11-10T13:19:48.592Z,85
2017-11-10T13:20:48.934Z,90
2017-11-10T13:21:49.255Z,115
2017-11-10T13:22:49.577Z,120
2017-11-10T13:23:48.884Z,115
2017-11-10T13:24:48.861Z,130
2017-11-10T13:25:49.208Z,130
2017-11-10T13:26:49.199Z,110
2017-11-10T13:27:48.476Z,125
2017-11-10T13:28:48.472Z,125
2017-11-10T13:29:49.860Z,115
2017-11-10T13:30:48.795Z,105
2017-11-10T13:31:48.429Z,130
2017-11-10T13:32:48.742Z,110
2017-11-10T13:33:49.083Z,95
2017-11-10T13:34:48.718Z,80
2017-11-10T13:35:49.059Z,90
2017-11-10T13:36:49.372Z,75
2017-11-10T13:37:49.359Z,75
2017-11-10T13:38:49.033Z,70
2017-11-10T13:39:49.373Z,65
2017-11-10T13:40:48.974Z,55
2017-11-10T13:41:49.689Z,50
2017-11-10T13:42:48.260Z,45
2017-11-10T13:43:48.606Z,35
2017-11-10T13:44:48.597Z,25
2017-11-10T13:45:48.900Z,30
2017-11-10T13:46:48.907Z,40
2017-11-10T13:47:49.264Z,30
2017-11-10T13:48:48.869Z,25
2017-11-10T13:49:48.496Z,35
2017-11-10T13:50:49.193Z,35
2017-11-10T13:51:49.174Z,35
2017-11-10T13:52:48.798Z,40
2017-11-10T13:53:48.439Z,30
2017-11-10T13:54:48.780Z,25
2017-11-10T13:55:48.753Z,25
2017-11-10T13:56:48.732Z,30
2017-11-10T13:57:48.726Z,20
2017-11-10T13:58:48.712Z,20
2017-11-10T13:59:49.040Z,25
2017-11-10T14:00:49.399Z,20
2017-11-10T14:01:49.012Z,30
2017-11-10T14:02:48.676Z,20
2017-11-10T14:03:48.327Z,25
2017-11-10T14:04:47.937Z,25
2017-11-10T14:05:48.619Z,20
2017-11-10T14:06:48.609Z,25
2017-11-10T14:07:47.893Z,20
2017-11-10T14:08:48.929Z,25
2017-11-10T14:09:48.214Z,25
2017-11-10T14:10:48.187Z,25
2017-11-10T14:11:48.881Z,30
2017-11-10T14:12:48.515Z,25
2017-11-10T14:13:48.145Z,30
2017-11-10T14:14:49.230Z,25
2017-11-10T14:15:48.477Z,20
2017-11-10T14:16:48.442Z,20
2017-11-10T14:17:48.084Z,25
2017-11-10T14:18:48.069Z,20
2017-11-10T14:19:48.773Z,20
2017-11-10T14:20:48.046Z,25
2017-11-10T14:21:48.394Z,20
2017-11-10T14:22:48.352Z,15
2017-11-10T14:23:48.359Z,15